createdAt,value
2018-04-30T00:02:21.659Z,45.49
2018-04-30T00:04:49.297Z,45.37
2018-04-30T00:07:16.982Z,45.72
2018-04-30T00:09:44.618Z,46.26
2018-04-30T00:12:12.309Z,45.62
2018-04-30T00:14:39.962Z,46.31
2018-04-30T00:17:07.641Z,46.19
2018-04-30T00:19:35.310Z,46.63
2018-04-30T00:22:03.028Z,46.19
2018-04-30T00:24:30.670Z,46.26
2018-04-30T00:26:58.400Z,46.85
2018-04-30T00:29:28.030Z,47.49
2018-04-30T00:31:55.706Z,47.68
2018-04-30T00:34:23.384Z,47.94
2018-04-30T00:36:51.092Z,48.20
2018-04-30T00:39:18.745Z,47.77
2018-04-30T00:41:46.446Z,48.03
2018-04-30T00:44:14.129Z,49.40
2018-04-30T00:46:41.770Z,48.85
2018-04-30T00:49:09.392Z,49.05
2018-04-30T00:51:37.090Z,49.39
2018-04-30T00:54:04.743Z,49.05
2018-04-30T00:56:32.376Z,48.66
2018-04-30T00:59:00.043Z,48.43
2018-04-30T01:01:27.682Z,47.98
2018-04-30T01:03:55.377Z,47.98
2018-04-30T01:06:23.065Z,47.46
2018-04-30T01:08:50.700Z,48.24
2018-04-30T01:11:18.398Z,48.19
2018-04-30T01:13:46.086Z,48.10
2018-04-30T01:16:13.714Z,48.66
2018-04-30T01:18:41.341Z,49.35
2018-04-30T01:21:08.974Z,49.79
2018-04-30T01:23:36.662Z,50.25
2018-04-30T01:26:04.298Z,50.77
2018-04-30T01:28:32.011Z,50.65
2018-04-30T01:30:59.722Z,51.19
2018-04-30T01:33:27.389Z,51.54
2018-04-30T01:35:55.105Z,51.46
2018-04-30T01:38:22.764Z,51.93
2018-04-30T01:40:50.438Z,52.05
2018-04-30T01:43:18.114Z,52.21
2018-04-30T01:45:45.810Z,52.71
2018-04-30T01:48:13.453Z,53.26
2018-04-30T01:50:41.094Z,52.90
2018-04-30T01:53:08.743Z,52.57
2018-04-30T01:55:36.374Z,53.08
2018-04-30T01:58:04.082Z,53.49
2018-04-30T02:00:31.811Z,53.57
2018-04-30T02:02:59.518Z,53.64
2018-04-30T02:05:27.222Z,53.68
2018-04-30T02:07:54.906Z,54.28
2018-04-30T02:10:22.622Z,54.37
2018-04-30T02:12:50.246Z,54.82
2018-04-30T02:15:17.915Z,54.65
2018-04-30T02:17:45.545Z,54.97
2018-04-30T02:20:13.221Z,55.50
2018-04-30T02:22:40.914Z,56.51
2018-04-30T02:25:08.566Z,56.29
2018-04-30T02:27:36.301Z,56.48
2018-04-30T02:30:04.061Z,56.55
2018-04-30T02:32:31.666Z,57.04
2018-04-30T02:34:59.254Z,56.14
2018-04-30T02:37:26.922Z,56.70
2018-04-30T02:39:54.606Z,57.17
2018-04-30T02:42:22.258Z,57.35
2018-04-30T02:44:49.906Z,57.82
2018-04-30T02:47:17.646Z,58.22
2018-04-30T02:49:45.278Z,58.29
2018-04-30T02:52:12.910Z,58.37
2018-04-30T02:54:40.611Z,58.91
2018-04-30T02:57:08.265Z,58.71
2018-04-30T02:59:35.953Z,58.94
2018-04-30T03:02:03.694Z,59.03
2018-04-30T03:04:31.345Z,59.10
2018-04-30T03:06:59.018Z,59.44
2018-04-30T03:09:26.738Z,60.17
2018-04-30T03:11:54.374Z,60.31
2018-04-30T03:14:22.038Z,61.23
2018-04-30T03:16:49.675Z,59.12
2018-04-30T03:19:17.346Z,58.42
2018-04-30T03:21:45.056Z,57.83
2018-04-30T03:24:12.785Z,57.16
2018-04-30T03:26:40.514Z,56.66
2018-04-30T03:29:08.223Z,55.89
2018-04-30T03:31:35.906Z,55.91
2018-04-30T03:34:03.606Z,61.69
2018-04-30T03:36:31.298Z,57.65
2018-04-30T03:38:59.022Z,56.30
2018-04-30T03:41:26.698Z,55.89
2018-04-30T03:43:54.426Z,55.56
2018-04-30T03:46:22.086Z,55.95
2018-04-30T03:48:49.809Z,55.37
2018-04-30T03:51:17.515Z,55.42
2018-04-30T03:53:45.170Z,54.92
2018-04-30T03:56:12.876Z,54.56
2018-04-30T03:58:40.498Z,55.87
2018-04-30T04:01:19.918Z,55.74
2018-04-30T04:03:59.324Z,55.03
2018-04-30T04:09:28.534Z,55.81
2018-04-30T04:11:56.206Z,56.48
2018-04-30T04:14:23.929Z,55.83
2018-04-30T04:16:51.570Z,56.51
2018-04-30T04:19:19.263Z,56.57
2018-04-30T04:21:46.937Z,56.73
2018-04-30T04:24:14.599Z,56.85
2018-04-30T04:26:42.243Z,54.79
2018-04-30T04:29:11.192Z,53.63
2018-04-30T04:31:39.331Z,52.88
2018-04-30T04:34:07.155Z,52.83
2018-04-30T04:36:34.878Z,52.71
2018-04-30T04:39:02.542Z,51.24
2018-04-30T04:41:30.165Z,52.20
2018-04-30T04:43:57.850Z,52.83
2018-04-30T04:46:25.453Z,53.14
2018-04-30T04:48:53.090Z,52.59
2018-04-30T04:51:20.795Z,52.29
2018-04-30T04:53:48.496Z,51.52
2018-04-30T04:56:16.175Z,49.84
2018-04-30T04:58:43.844Z,49.29
2018-04-30T05:01:11.506Z,50.70
2018-04-30T05:03:39.169Z,50.45
2018-04-30T05:06:06.867Z,50.38
2018-04-30T05:08:34.529Z,49.26
2018-04-30T05:11:02.171Z,49.40
2018-04-30T05:13:29.950Z,50.01
2018-04-30T05:15:57.670Z,48.64
2018-04-30T05:18:25.366Z,48.46
2018-04-30T05:20:53.040Z,48.12
2018-04-30T05:23:20.658Z,48.43
2018-04-30T05:25:48.481Z,49.06
2018-04-30T05:28:16.174Z,49.26
2018-04-30T05:30:43.845Z,49.89
2018-04-30T05:33:11.575Z,48.66
2018-04-30T05:35:39.233Z,47.88
2018-04-30T05:38:06.849Z,46.99
2018-04-30T05:40:34.517Z,45.00
2018-04-30T05:43:02.221Z,46.29
2018-04-30T05:45:29.877Z,44.47
2018-04-30T05:47:57.550Z,44.65
2018-04-30T05:50:25.245Z,44.10
2018-04-30T05:52:52.977Z,44.18
2018-04-30T05:55:20.623Z,44.29
2018-04-30T05:57:48.322Z,44.41
2018-04-30T06:00:15.928Z,43.48
2018-04-30T06:02:43.566Z,43.37
2018-04-30T06:05:11.229Z,43.70
2018-04-30T06:07:39.474Z,43.81
2018-04-30T06:10:07.124Z,43.82
2018-04-30T06:12:34.723Z,44.34
2018-04-30T06:15:02.325Z,43.47
2018-04-30T06:17:30.001Z,43.08
2018-04-30T06:19:57.599Z,41.39
2018-04-30T06:22:25.219Z,41.84
2018-04-30T06:24:52.805Z,41.17
2018-04-30T06:27:20.429Z,42.38
2018-04-30T06:29:48.022Z,40.27
2018-04-30T06:32:15.610Z,40.40
2018-04-30T06:34:43.213Z,42.40
2018-04-30T06:37:10.810Z,39.17
2018-04-30T06:39:38.400Z,39.20
2018-04-30T06:42:06.001Z,39.48
2018-04-30T06:44:33.617Z,39.53
2018-04-30T06:47:01.222Z,40.10
2018-04-30T06:49:28.841Z,39.99
2018-04-30T06:51:56.421Z,38.85
2018-04-30T06:54:24.004Z,38.07
2018-04-30T06:56:51.620Z,38.73
2018-04-30T06:59:19.209Z,37.71
2018-04-30T07:01:46.817Z,37.67
2018-04-30T07:04:14.428Z,36.94
2018-04-30T07:06:42.187Z,36.78
2018-04-30T07:09:09.797Z,35.44
2018-04-30T07:11:37.387Z,36.05
2018-04-30T07:14:04.988Z,34.81
2018-04-30T07:16:32.585Z,34.40
2018-04-30T07:19:00.229Z,33.68
2018-04-30T07:21:27.841Z,33.58
2018-04-30T07:23:55.441Z,33.78
2018-04-30T07:26:23.040Z,32.33
2018-04-30T07:28:50.622Z,32.34
2018-04-30T07:31:18.241Z,32.34
2018-04-30T07:33:45.838Z,32.87
2018-04-30T07:36:13.463Z,33.72
2018-04-30T07:38:41.155Z,32.93
2018-04-30T07:41:08.755Z,33.33
2018-04-30T07:43:36.345Z,32.72
2018-04-30T07:46:03.993Z,31.51
2018-04-30T07:48:31.634Z,31.31
2018-04-30T07:50:59.403Z,31.49
2018-04-30T07:53:27.062Z,31.45
2018-04-30T07:55:54.649Z,32.98
2018-04-30T07:58:22.245Z,31.52
2018-04-30T08:00:49.861Z,31.73
2018-04-30T08:03:17.445Z,30.82
2018-04-30T08:05:45.069Z,30.35
2018-04-30T08:08:12.672Z,31.44
2018-04-30T08:10:40.279Z,31.31
2018-04-30T08:13:07.867Z,29.93
2018-04-30T08:15:35.493Z,29.52
2018-04-30T08:18:03.094Z,29.50
2018-04-30T08:20:30.713Z,28.67
2018-04-30T08:22:58.361Z,30.09
2018-04-30T08:25:25.953Z,31.03
2018-04-30T08:27:53.573Z,31.95
2018-04-30T08:30:21.197Z,32.19
2018-04-30T08:32:48.792Z,32.24
2018-04-30T08:35:16.385Z,31.51
2018-04-30T08:37:44.019Z,32.78
2018-04-30T08:40:11.633Z,31.94
2018-04-30T08:42:39.266Z,32.54
2018-04-30T08:45:07.058Z,33.96
2018-04-30T08:47:34.625Z,32.71
2018-04-30T08:50:02.257Z,32.07
2018-04-30T08:52:29.859Z,31.68
2018-04-30T08:54:57.451Z,30.50
2018-04-30T08:57:25.055Z,28.39
2018-04-30T08:59:52.636Z,27.00
2018-04-30T09:02:20.262Z,28.98
2018-04-30T09:04:47.845Z,29.29
2018-04-30T09:07:15.438Z,27.45
2018-04-30T09:09:43.021Z,27.87
2018-04-30T09:12:10.654Z,27.11
2018-04-30T09:14:38.238Z,28.44
2018-04-30T09:17:05.839Z,27.54
2018-04-30T09:19:33.433Z,27.42
2018-04-30T09:22:01.025Z,27.72
2018-04-30T09:24:28.726Z,27.55
2018-04-30T09:26:56.338Z,25.19
2018-04-30T09:29:23.939Z,27.43
2018-04-30T09:31:51.554Z,28.04
2018-04-30T09:34:19.137Z,27.40
2018-04-30T09:36:46.946Z,26.95
2018-04-30T09:39:14.591Z,25.27
2018-04-30T09:41:42.257Z,23.29
2018-04-30T09:44:09.862Z,24.51
2018-04-30T09:46:37.493Z,26.00
2018-04-30T09:49:05.088Z,26.87
2018-04-30T09:51:32.678Z,27.61
2018-04-30T09:54:00.317Z,27.65
2018-04-30T09:56:27.994Z,28.51
2018-04-30T09:58:55.627Z,29.54
2018-04-30T10:01:23.301Z,29.97
2018-04-30T10:03:50.977Z,30.70
2018-04-30T10:06:18.639Z,26.40
2018-04-30T10:08:46.262Z,28.12
2018-04-30T10:11:14.164Z,28.62
2018-04-30T10:13:41.838Z,28.47
2018-04-30T10:16:09.542Z,29.15
2018-04-30T10:18:37.250Z,29.87
2018-04-30T10:21:04.950Z,30.70
2018-04-30T10:23:32.663Z,31.00
2018-04-30T10:26:00.417Z,31.03
2018-04-30T10:28:28.100Z,29.32
2018-04-30T10:30:55.912Z,28.09
2018-04-30T10:33:23.574Z,25.71
2018-04-30T10:35:51.170Z,24.96
2018-04-30T10:38:18.879Z,22.78
2018-04-30T10:40:47.410Z,24.02
2018-04-30T10:43:15.101Z,24.23
2018-04-30T10:45:42.718Z,22.97
2018-04-30T10:48:10.389Z,21.36
2018-04-30T10:50:37.978Z,22.23
2018-04-30T10:53:05.629Z,19.91
2018-04-30T10:55:33.270Z,22.65
2018-04-30T10:58:00.890Z,25.68
2018-04-30T11:00:28.498Z,26.49
2018-04-30T11:02:56.275Z,25.82
2018-04-30T11:05:23.912Z,27.27
2018-04-30T11:07:51.606Z,26.74
2018-04-30T11:10:19.317Z,25.93
2018-04-30T11:12:47.046Z,26.20
2018-04-30T11:15:14.666Z,24.29
2018-04-30T11:17:42.269Z,23.00
2018-04-30T11:20:09.910Z,23.57
2018-04-30T11:22:38.629Z,22.99
2018-04-30T11:25:06.264Z,22.17
2018-04-30T11:27:33.985Z,22.70
2018-04-30T11:30:01.542Z,22.86
2018-04-30T11:32:29.219Z,22.94
2018-04-30T11:34:56.837Z,22.54
2018-04-30T11:37:24.441Z,23.92
2018-04-30T11:39:52.104Z,25.14
2018-04-30T11:42:19.719Z,25.22
2018-04-30T11:44:47.326Z,27.91
2018-04-30T11:47:15.066Z,27.19
2018-04-30T11:49:42.613Z,25.83
2018-04-30T11:52:10.293Z,25.97
2018-04-30T11:54:37.986Z,24.46
2018-04-30T11:57:05.593Z,23.92
2018-04-30T11:59:33.202Z,24.81
2018-04-30T12:02:00.833Z,25.54
2018-04-30T12:04:28.428Z,26.90
2018-04-30T12:06:56.048Z,27.40
2018-04-30T12:09:23.649Z,28.14
2018-04-30T12:11:51.361Z,29.12
2018-04-30T12:14:18.977Z,27.71
2018-04-30T12:16:46.592Z,28.85
2018-04-30T12:19:14.257Z,28.92
2018-04-30T12:21:41.899Z,30.56
2018-04-30T12:24:09.498Z,28.56
2018-04-30T12:26:37.172Z,28.73
2018-04-30T12:29:04.777Z,29.05
2018-04-30T12:31:32.401Z,29.53
2018-04-30T12:34:00.033Z,29.57
2018-04-30T12:36:28.369Z,29.78
2018-04-30T12:38:55.957Z,29.60
2018-04-30T12:41:23.615Z,29.08
2018-04-30T12:43:51.217Z,29.13
2018-04-30T12:46:18.892Z,28.00
2018-04-30T12:48:46.551Z,27.89
2018-04-30T12:51:14.203Z,27.62
2018-04-30T12:53:41.794Z,28.90
2018-04-30T12:56:09.458Z,28.93
2018-04-30T12:58:37.102Z,28.76
2018-04-30T13:01:04.696Z,29.02
2018-04-30T13:03:32.344Z,28.52
2018-04-30T13:05:59.971Z,29.57
2018-04-30T13:08:27.580Z,31.10
2018-04-30T13:10:55.209Z,31.63
2018-04-30T13:13:22.817Z,30.96
2018-04-30T13:15:50.424Z,31.68
2018-04-30T13:18:18.045Z,32.12
2018-04-30T13:20:45.664Z,32.30
2018-04-30T13:23:13.268Z,32.97
2018-04-30T13:25:40.901Z,33.15
2018-04-30T13:28:08.522Z,33.23
2018-04-30T13:30:36.117Z,33.38
2018-04-30T13:33:03.818Z,32.99
2018-04-30T13:35:31.482Z,33.04
2018-04-30T13:37:59.098Z,32.94
2018-04-30T13:40:26.721Z,32.41
2018-04-30T13:42:54.310Z,33.46
2018-04-30T13:45:21.913Z,32.85
2018-04-30T13:47:49.542Z,33.21
2018-04-30T13:50:17.132Z,34.07
2018-04-30T13:52:44.719Z,33.66
2018-04-30T13:55:12.341Z,34.72
2018-04-30T13:57:39.977Z,33.89
2018-04-30T14:00:07.561Z,33.73
2018-04-30T14:02:35.187Z,33.45
2018-04-30T14:05:02.773Z,33.42
2018-04-30T14:07:30.356Z,34.38
2018-04-30T14:09:57.983Z,34.48
2018-04-30T14:12:25.565Z,35.20
2018-04-30T14:14:53.177Z,34.76
2018-04-30T14:17:20.797Z,35.57
2018-04-30T14:19:48.405Z,35.99
2018-04-30T14:22:16.019Z,36.47
2018-04-30T14:24:43.662Z,36.05
2018-04-30T14:27:11.245Z,36.57
2018-04-30T14:29:38.969Z,36.22
2018-04-30T14:32:06.849Z,36.26
2018-04-30T14:34:34.794Z,36.04
2018-04-30T14:37:03.022Z,37.40
2018-04-30T14:39:30.706Z,35.69
2018-04-30T14:41:58.344Z,35.99
2018-04-30T14:44:26.842Z,36.59
2018-04-30T14:46:54.741Z,36.85
2018-04-30T14:49:22.325Z,37.21
2018-04-30T14:51:49.905Z,37.43
2018-04-30T14:54:17.600Z,37.34
2018-04-30T14:56:48.855Z,37.78
2018-04-30T14:59:18.201Z,37.26
2018-04-30T15:01:45.826Z,37.50
2018-04-30T15:04:14.520Z,37.34
2018-04-30T15:06:42.333Z,38.18
2018-04-30T15:09:09.958Z,37.41
2018-04-30T15:11:37.569Z,37.98
2018-04-30T15:14:12.068Z,38.31
2018-04-30T15:19:44.691Z,38.51
2018-04-30T15:22:13.758Z,38.94
2018-04-30T15:24:41.440Z,38.72
2018-04-30T15:27:09.198Z,38.94
2018-04-30T15:29:36.850Z,39.52
2018-04-30T15:32:04.449Z,39.55
2018-04-30T15:34:32.290Z,39.57
2018-04-30T15:36:59.937Z,39.54
2018-04-30T15:39:27.585Z,39.81
2018-04-30T15:42:10.938Z,39.61
2018-04-30T15:44:40.380Z,39.60
2018-04-30T15:47:08.149Z,40.42
2018-04-30T15:49:36.309Z,40.06
2018-04-30T15:52:04.014Z,40.33
2018-04-30T15:54:46.794Z,40.38
2018-04-30T15:57:14.534Z,40.38
2018-04-30T15:59:42.187Z,40.50
2018-04-30T16:02:33.395Z,40.20
2018-04-30T16:05:01.155Z,40.73
2018-04-30T16:07:33.482Z,41.34
2018-04-30T16:10:01.197Z,41.65
2018-04-30T16:12:28.951Z,41.62
2018-04-30T16:14:56.635Z,41.50
2018-04-30T16:17:35.577Z,42.05
2018-04-30T16:20:03.242Z,41.69
2018-04-30T16:22:30.856Z,41.31
2018-04-30T16:24:58.505Z,41.94
2018-04-30T16:27:26.116Z,42.16
2018-04-30T16:29:53.750Z,42.25
2018-04-30T16:32:21.373Z,42.34
2018-04-30T16:34:49.922Z,42.46
2018-04-30T16:37:17.543Z,42.73
2018-04-30T16:39:45.173Z,43.53
2018-04-30T16:42:12.810Z,44.19
2018-04-30T16:44:40.398Z,43.40
2018-04-30T16:47:08.037Z,43.63
2018-04-30T16:49:37.784Z,43.55
2018-04-30T16:52:06.672Z,43.69
2018-04-30T16:54:35.947Z,43.08
2018-04-30T16:57:03.903Z,42.78
2018-04-30T16:59:31.668Z,43.63
2018-04-30T17:01:59.350Z,44.29
2018-04-30T17:04:27.057Z,45.07
2018-04-30T17:06:55.322Z,44.71
2018-04-30T17:09:23.519Z,45.69
2018-04-30T17:14:24.687Z,45.16
2018-04-30T17:16:56.709Z,45.97
2018-04-30T17:22:13.932Z,46.30
2018-04-30T17:24:41.945Z,46.92
2018-04-30T17:27:09.750Z,47.21
2018-04-30T17:29:38.714Z,47.15
2018-04-30T17:32:06.458Z,47.16
2018-04-30T17:34:34.106Z,47.36
2018-04-30T17:37:02.013Z,47.47
2018-04-30T17:39:29.987Z,47.64
2018-04-30T17:41:57.710Z,48.09
2018-04-30T17:44:25.435Z,48.74
2018-04-30T17:46:53.185Z,48.95
2018-04-30T17:49:20.825Z,48.87
2018-04-30T17:51:48.513Z,49.02
2018-04-30T17:54:16.278Z,48.91
2018-04-30T17:56:43.937Z,49.76
2018-04-30T17:59:11.774Z,49.75
2018-04-30T18:01:39.455Z,50.42
2018-04-30T18:04:07.173Z,50.38
2018-04-30T18:06:34.986Z,50.80
2018-04-30T18:09:02.666Z,50.86
2018-04-30T18:11:30.362Z,50.90
2018-04-30T18:13:58.125Z,51.36
2018-04-30T18:16:25.726Z,51.73
2018-04-30T18:18:53.436Z,51.52
2018-04-30T18:21:21.073Z,51.91
2018-04-30T18:23:48.682Z,52.05
2018-04-30T18:26:16.321Z,52.25
2018-04-30T18:28:43.957Z,52.54
2018-04-30T18:31:11.554Z,53.11
2018-04-30T18:33:39.302Z,53.83
2018-04-30T18:36:10.466Z,54.97
2018-04-30T18:38:38.195Z,55.68
2018-04-30T18:41:05.900Z,56.04
2018-04-30T18:43:33.590Z,56.21
2018-04-30T18:46:01.234Z,56.36
2018-04-30T18:48:28.925Z,56.21
2018-04-30T18:50:56.645Z,56.58
2018-04-30T18:53:24.309Z,56.83
2018-04-30T18:55:51.926Z,57.36
2018-04-30T18:58:19.582Z,57.29
2018-04-30T19:00:47.397Z,57.25
2018-04-30T19:03:15.113Z,57.46
2018-04-30T19:05:42.826Z,57.92
2018-04-30T19:08:10.566Z,57.34
2018-04-30T19:10:38.277Z,57.59
2018-04-30T19:13:05.983Z,58.03
2018-04-30T19:15:33.596Z,57.93
2018-04-30T19:18:01.282Z,58.33
2018-04-30T19:20:28.926Z,58.43
2018-04-30T19:22:56.534Z,58.69
2018-04-30T19:25:24.222Z,59.03
2018-04-30T19:27:52.814Z,59.38
2018-04-30T19:30:20.439Z,58.81
2018-04-30T19:32:48.114Z,59.33
2018-04-30T19:35:15.869Z,59.00
2018-04-30T19:37:43.533Z,59.09
2018-04-30T19:40:11.247Z,59.07
2018-04-30T19:42:38.908Z,59.40
2018-04-30T19:45:06.553Z,59.22
2018-04-30T19:47:34.167Z,59.59
2018-04-30T19:50:01.830Z,60.02
2018-04-30T19:52:29.525Z,59.39
2018-04-30T19:54:57.061Z,59.65
2018-04-30T19:57:24.698Z,59.84
2018-04-30T19:59:52.289Z,60.06
2018-04-30T20:02:19.885Z,59.90
2018-04-30T20:04:47.529Z,60.03
2018-04-30T20:07:15.130Z,60.69
2018-04-30T20:09:42.730Z,60.77
2018-04-30T20:12:10.414Z,61.37
2018-04-30T20:14:38.069Z,61.04
2018-04-30T20:17:05.702Z,61.16
2018-04-30T20:19:33.365Z,61.40
2018-04-30T20:22:01.070Z,61.78
2018-04-30T20:24:28.725Z,61.69
2018-04-30T20:26:56.463Z,61.96
2018-04-30T20:29:24.098Z,61.57
2018-04-30T20:31:51.793Z,61.23
2018-04-30T20:34:19.473Z,60.51
2018-04-30T20:36:47.118Z,60.05
2018-04-30T20:39:14.810Z,59.54
2018-04-30T20:41:42.473Z,59.05
2018-04-30T20:44:10.089Z,59.07
2018-04-30T20:46:37.830Z,59.08
2018-04-30T20:49:05.614Z,59.11
2018-04-30T20:51:33.296Z,58.74
2018-04-30T20:54:01.053Z,58.52
2018-04-30T20:56:28.781Z,58.67
2018-04-30T20:58:56.437Z,58.87
2018-04-30T21:01:24.081Z,58.77
2018-04-30T21:03:51.709Z,59.04
2018-04-30T21:06:19.371Z,58.93
2018-04-30T21:08:58.857Z,59.66
2018-04-30T21:11:26.522Z,59.95
2018-04-30T21:13:54.171Z,60.26
2018-04-30T21:16:21.914Z,60.84
2018-04-30T21:18:49.577Z,61.27
2018-04-30T21:21:17.241Z,61.60
2018-04-30T21:23:44.950Z,62.06
2018-04-30T21:26:12.584Z,62.21
2018-04-30T21:28:40.268Z,62.55
2018-04-30T21:31:07.974Z,62.82
2018-04-30T21:33:35.634Z,63.23
2018-04-30T21:36:03.329Z,63.14
2018-04-30T21:38:30.998Z,63.21
2018-04-30T21:40:58.677Z,64.28
2018-04-30T21:43:26.281Z,64.54
2018-04-30T21:45:53.954Z,64.11
2018-04-30T21:48:21.586Z,63.72
2018-04-30T21:50:49.267Z,63.47
2018-04-30T21:53:16.981Z,63.35
2018-04-30T21:55:44.702Z,63.71
2018-04-30T21:58:12.353Z,63.91
2018-04-30T22:00:40.075Z,63.94
2018-04-30T22:03:07.765Z,63.29
2018-04-30T22:05:35.452Z,63.36
2018-04-30T22:08:03.166Z,63.84
2018-04-30T22:10:30.838Z,64.32
2018-04-30T22:12:58.463Z,64.75
2018-04-30T22:15:26.210Z,64.94
2018-04-30T22:17:53.861Z,64.98
2018-04-30T22:20:21.565Z,64.52
2018-04-30T22:22:49.262Z,64.88
2018-04-30T22:25:16.949Z,65.10
2018-04-30T22:27:44.622Z,65.27
2018-04-30T22:30:12.306Z,65.35
2018-04-30T22:32:39.938Z,65.91
2018-04-30T22:35:07.617Z,65.97
2018-04-30T22:37:35.310Z,65.90
2018-04-30T22:40:03.026Z,66.41
2018-04-30T22:42:30.685Z,66.81
2018-04-30T22:44:58.413Z,66.30
2018-04-30T22:47:26.129Z,65.55
2018-04-30T22:49:53.822Z,65.42
2018-04-30T22:52:21.495Z,65.41
2018-04-30T22:54:49.157Z,63.13
2018-04-30T22:57:16.805Z,62.59
2018-04-30T22:59:44.485Z,62.32
2018-04-30T23:02:12.153Z,62.74
2018-04-30T23:04:39.776Z,61.36
2018-04-30T23:07:07.454Z,59.77
2018-04-30T23:09:35.097Z,59.35
2018-04-30T23:12:02.790Z,59.55
2018-04-30T23:14:30.505Z,58.29
2018-04-30T23:16:58.197Z,57.56
2018-04-30T23:19:25.885Z,58.09
2018-04-30T23:21:53.657Z,58.45
2018-04-30T23:24:21.313Z,57.68
2018-04-30T23:26:48.976Z,56.58
2018-04-30T23:29:16.693Z,55.69
2018-04-30T23:31:44.394Z,56.45
2018-04-30T23:34:12.126Z,56.51
2018-04-30T23:36:39.793Z,57.25
2018-04-30T23:39:07.470Z,56.33
2018-04-30T23:41:35.145Z,57.18
2018-04-30T23:44:02.810Z,56.57
2018-04-30T23:46:30.437Z,56.12
2018-04-30T23:48:58.046Z,55.43
2018-04-30T23:51:25.753Z,56.04
2018-04-30T23:53:53.445Z,56.63
2018-04-30T23:56:21.120Z,57.15
2018-04-30T23:58:48.813Z,57.60
